Quincy, MA (02170)

2:07 PM EDT on August 24, 2016 (GMT -0400)
Wollaston | | Change Station

Elev 18 ft 42.27 °N, 71.03 °W | Updated 335 days ago

Clear
Clear
85 °F
Feels Like 83 °F
N
8
Wind Variable Wind from SSW
Gusts mph

Today
High -- | Low -- °F
--% Chance of Precip.
Yesterday
High -- | Low -- °F
Precip. -- in
Pressure 30.18 in
Visibility 10.0 miles
Clouds Few 25000 ft
Heat Index 83 °F
Dew Point 58 °F
Humidity 40%
Rainfall in
Snow Depth Not available.
6:01 AM 7:30 PM
Waning Gibbous, 55% visible
METAR KBOS 241754Z 24008KT 10SM FEW250 31/14 A3018 RMK AO2 SLP220 T03060144 10306 20217 56017
Pressure 30.18 in
Visibility 10.0 miles
Clouds Few 25000 ft
Heat Index 83 °F
Dew Point 58 °F
Humidity 40%
Rainfall in
Snow Depth Not available.
6:01 AM 7:30 PM
Waning Gibbous, 55% visible
METAR KBOS 241754Z 24008KT 10SM FEW250 31/14 A3018 RMK AO2 SLP220 T03060144 10306 20217 56017

10-Day Weather Forecast

Almanac

Astronomy

Aug. 24, 2016 Rise Set
Actual Time
Civil Twilight
Nautical Twilight
Astronomical Twilight
Moon
Length of Visible Light
Length of Day
Tomorrow will be .
, % of the Moon is Illuminated

Today's Extremes

State Highs State Lows

Community

WunderPhotos

Upload Photos

1,934,662 photos uploaded!

WunderBlog® & News

Nearby

Air Quality

  Air Quality AQ Index Pollutant
Not available.

Snow Depth

Station Depth Elevation

Earthquake Activity

City Distance Mag. Time & Date
Minimum magnitude displayed is 2.5.

Coastal Water Temperatures

Place Temperature

Stations

Nearby Weather Stations

Station Location Temp. Windchill Dew Point Humidity Wind Precip. Elev Updated Type
                   

Watches & Warnings

There are currently no watches in effect.